Time;durP1;ratioP1;P1;durP2;ratioP2;P2;SDS_P1;SDS_P2;PMS_P1;PMS_P2;Temp;Humidity;BMP_temperature;BMP_pressure;BME280_temperature;BME280_humidity;BME280_pressure;Samples;Min_cycle;Max_cycle;Signal;HPM_P1;HPM_P2
2024/01/17 00:00:27;;;;;;;64.57;30.02;;;;;;;;;;1049406;28;20547;-64
2024/01/17 00:01:18;;;;;;;67.68;27.42;;;;;;;;;;1049305;28;20063;-64
2024/01/17 00:01:59;;;;;;;63.60;27.33;;;;;;;;;;1050578;28;20466;-65
2024/01/17 00:02:29;;;;;;;67.15;28.73;;;;;;;;;;1050619;28;20856;-64
2024/01/17 00:03:00;;;;;;;61.38;28.65;;;;;;;;;;1050081;28;20097;-64
2024/01/17 00:03:31;;;;;;;69.95;29.50;;;;;;;;;;1047803;28;20047;-64
2024/01/17 00:04:01;;;;;;;63.15;29.33;;;;;;;;;;1046353;28;20048;-64
2024/01/17 00:04:32;;;;;;;67.25;30.80;;;;;;;;;;1046171;28;20045;-64
2024/01/17 00:05:03;;;;;;;71.80;31.30;;;;;;;;;;1046183;28;20131;-64
2024/01/17 00:05:34;;;;;;;77.20;32.25;;;;;;;;;;1048279;28;20101;-64
2024/01/17 00:06:04;;;;;;;65.03;30.00;;;;;;;;;;1050607;28;20055;-64
2024/01/17 00:06:35;;;;;;;69.78;29.88;;;;;;;;;;1049899;28;20040;-64
2024/01/17 00:07:06;;;;;;;67.53;29.88;;;;;;;;;;1049062;28;20063;-64
2024/01/17 00:07:37;;;;;;;64.85;29.55;;;;;;;;;;1046546;28;22014;-64
2024/01/17 00:08:09;;;;;;;60.33;28.60;;;;;;;;;;1047233;28;20756;-64
2024/01/17 00:08:39;;;;;;;63.10;28.55;;;;;;;;;;1046256;28;20131;-64
2024/01/17 00:09:10;;;;;;;67.25;30.13;;;;;;;;;;1048064;28;20052;-64
2024/01/17 00:09:40;;;;;;;57.70;27.58;;;;;;;;;;1046858;28;20131;-64
2024/01/17 00:10:11;;;;;;;62.25;27.90;;;;;;;;;;1047039;28;20044;-64
2024/01/17 00:10:41;;;;;;;67.22;30.10;;;;;;;;;;1048182;28;20052;-64
2024/01/17 00:11:12;;;;;;;62.70;28.75;;;;;;;;;;1050571;28;20048;-64
2024/01/17 00:11:43;;;;;;;61.03;27.45;;;;;;;;;;1050378;28;20052;-64
2024/01/17 00:12:13;;;;;;;52.90;26.48;;;;;;;;;;1051005;28;20059;-65
2024/01/17 00:12:44;;;;;;;66.05;28.67;;;;;;;;;;1050370;28;20047;-64
2024/01/17 00:13:14;;;;;;;58.67;27.15;;;;;;;;;;1048515;28;20126;-64
2024/01/17 00:13:45;;;;;;;59.75;26.25;;;;;;;;;;1049459;28;20067;-64
2024/01/17 00:14:15;;;;;;;66.13;26.58;;;;;;;;;;1046779;28;20049;-64
2024/01/17 00:14:46;;;;;;;59.33;26.85;;;;;;;;;;1046515;28;20051;-65
2024/01/17 00:15:19;;;;;;;56.20;27.35;;;;;;;;;;1047143;28;20447;-64
2024/01/17 00:15:50;;;;;;;62.80;26.25;;;;;;;;;;1050210;28;20492;-64
2024/01/17 00:16:22;;;;;;;55.25;25.73;;;;;;;;;;1048126;28;20480;-64
2024/01/17 00:16:54;;;;;;;55.33;26.27;;;;;;;;;;1050222;28;20048;-64
2024/01/17 00:17:25;;;;;;;64.38;28.52;;;;;;;;;;1048466;28;20047;-64
2024/01/17 00:17:55;;;;;;;59.58;25.73;;;;;;;;;;1047765;28;20054;-64
2024/01/17 00:18:26;;;;;;;55.72;27.60;;;;;;;;;;1048498;28;20048;-64
2024/01/17 00:18:56;;;;;;;58.53;26.60;;;;;;;;;;1046146;28;20051;-64
2024/01/17 00:19:30;;;;;;;50.83;25.33;;;;;;;;;;1046643;28;20679;-64
2024/01/17 00:20:00;;;;;;;58.30;26.42;;;;;;;;;;1049600;28;20048;-64
2024/01/17 00:20:32;;;;;;;60.38;25.55;;;;;;;;;;1048699;28;20055;-64
2024/01/17 00:21:03;;;;;;;55.00;26.60;;;;;;;;;;1047599;28;20056;-64
2024/01/17 00:21:33;;;;;;;52.95;24.00;;;;;;;;;;1051221;28;20044;-65
2024/01/17 00:22:04;;;;;;;50.58;25.83;;;;;;;;;;1049099;28;20093;-64
2024/01/17 00:22:34;;;;;;;58.55;26.25;;;;;;;;;;1047134;28;20045;-64
2024/01/17 00:23:05;;;;;;;60.15;25.85;;;;;;;;;;1049313;28;20044;-64
2024/01/17 00:23:35;;;;;;;57.03;26.58;;;;;;;;;;1046317;28;20061;-64
2024/01/17 00:24:06;;;;;;;53.55;25.65;;;;;;;;;;1049252;28;20122;-64
2024/01/17 00:24:36;;;;;;;49.33;24.88;;;;;;;;;;1048918;28;20048;-65
2024/01/17 00:25:08;;;;;;;52.13;23.65;;;;;;;;;;1050850;28;20055;-64
2024/01/17 00:25:39;;;;;;;59.58;25.75;;;;;;;;;;1050494;28;20063;-64
2024/01/17 00:26:11;;;;;;;49.95;23.88;;;;;;;;;;1051301;28;20047;-64
2024/01/17 00:26:41;;;;;;;63.70;25.33;;;;;;;;;;1046744;28;20052;-64
2024/01/17 00:27:14;;;;;;;56.85;25.25;;;;;;;;;;1047094;28;20076;-64
2024/01/17 00:27:49;;;;;;;49.28;25.15;;;;;;;;;;1046081;28;20578;-64
2024/01/17 00:28:19;;;;;;;53.47;24.98;;;;;;;;;;1047182;28;20044;-64
2024/01/17 00:28:50;;;;;;;53.42;25.65;;;;;;;;;;1046091;28;20052;-64
2024/01/17 00:29:20;;;;;;;55.45;24.63;;;;;;;;;;1047171;28;20048;-64
2024/01/17 00:29:57;;;;;;;62.95;25.65;;;;;;;;;;1046474;28;20054;-64
2024/01/17 00:30:27;;;;;;;60.30;24.52;;;;;;;;;;1046816;28;20048;-64
2024/01/17 00:30:58;;;;;;;55.05;25.05;;;;;;;;;;1046277;28;20046;-65
2024/01/17 00:31:28;;;;;;;54.55;25.25;;;;;;;;;;1046955;28;21934;-64
2024/01/17 00:31:59;;;;;;;51.97;24.05;;;;;;;;;;1048156;28;20071;-64
2024/01/17 00:32:31;;;;;;;61.20;25.40;;;;;;;;;;1046646;28;20055;-64
2024/01/17 00:33:02;;;;;;;52.13;24.65;;;;;;;;;;1049549;28;20089;-65
2024/01/17 00:33:33;;;;;;;52.45;25.48;;;;;;;;;;1050559;28;20152;-65
2024/01/17 00:34:03;;;;;;;59.80;24.90;;;;;;;;;;1049291;28;20051;-64
2024/01/17 00:34:34;;;;;;;51.45;25.58;;;;;;;;;;1047830;28;20125;-64
2024/01/17 00:35:05;;;;;;;55.95;24.80;;;;;;;;;;1049096;28;20532;-64
2024/01/17 00:35:36;;;;;;;59.58;26.50;;;;;;;;;;1046328;28;20078;-65
2024/01/17 00:36:06;;;;;;;54.25;24.75;;;;;;;;;;1046609;28;20053;-64
2024/01/17 00:36:37;;;;;;;51.95;24.83;;;;;;;;;;1046407;28;20055;-65
2024/01/17 00:37:09;;;;;;;57.05;25.10;;;;;;;;;;1048312;28;20163;-64
2024/01/17 00:37:39;;;;;;;55.03;25.00;;;;;;;;;;1046372;28;20079;-64
2024/01/17 00:38:10;;;;;;;53.10;25.73;;;;;;;;;;1046683;28;20059;-64
2024/01/17 00:38:40;;;;;;;57.97;24.63;;;;;;;;;;1046360;28;20060;-64
2024/01/17 00:39:13;;;;;;;51.92;25.08;;;;;;;;;;1046878;28;20047;-64
2024/01/17 00:39:44;;;;;;;63.83;27.95;;;;;;;;;;1050053;28;20126;-64
2024/01/17 00:40:14;;;;;;;58.00;25.70;;;;;;;;;;1050835;28;20098;-64
2024/01/17 00:40:45;;;;;;;58.63;25.15;;;;;;;;;;1046408;28;20433;-64
2024/01/17 00:41:17;;;;;;;54.75;24.05;;;;;;;;;;1048756;28;20052;-64
2024/01/17 00:41:49;;;;;;;57.85;25.63;;;;;;;;;;1047324;28;20749;-65
2024/01/17 00:42:19;;;;;;;58.53;25.30;;;;;;;;;;1048983;28;20052;-65
2024/01/17 00:42:50;;;;;;;55.13;24.70;;;;;;;;;;1046261;28;20048;-64
2024/01/17 00:43:20;;;;;;;64.25;25.30;;;;;;;;;;1046905;28;22195;-64
2024/01/17 00:43:51;;;;;;;46.10;23.92;;;;;;;;;;1046083;28;20618;-64
2024/01/17 00:44:26;;;;;;;53.90;24.58;;;;;;;;;;1046935;28;20463;-64
2024/01/17 00:44:57;;;;;;;54.80;25.17;;;;;;;;;;1050341;28;20048;-64
2024/01/17 00:45:27;;;;;;;50.20;23.23;;;;;;;;;;1051315;28;20048;-64
2024/01/17 00:45:58;;;;;;;56.42;25.10;;;;;;;;;;1050227;28;20055;-64
2024/01/17 00:46:29;;;;;;;61.17;25.85;;;;;;;;;;1050902;28;20194;-64
2024/01/17 00:47:00;;;;;;;50.30;24.13;;;;;;;;;;1049504;28;20052;-64
2024/01/17 00:47:30;;;;;;;58.53;26.73;;;;;;;;;;1050147;28;20047;-64
2024/01/17 00:48:03;;;;;;;47.92;24.38;;;;;;;;;;1050606;28;20059;-64
2024/01/17 00:48:33;;;;;;;51.20;24.33;;;;;;;;;;1049887;28;20790;-64
2024/01/17 00:49:04;;;;;;;55.47;26.92;;;;;;;;;;1046232;28;20052;-64
2024/01/17 00:49:35;;;;;;;55.63;24.98;;;;;;;;;;1049163;28;20102;-64
2024/01/17 00:50:05;;;;;;;52.72;25.60;;;;;;;;;;1047939;28;20135;-64
2024/01/17 00:50:36;;;;;;;58.45;27.50;;;;;;;;;;1046006;28;20083;-64
2024/01/17 00:51:06;;;;;;;54.25;24.13;;;;;;;;;;1046643;28;20049;-64
2024/01/17 00:51:37;;;;;;;63.53;25.48;;;;;;;;;;1046365;28;20044;-65
2024/01/17 00:52:08;;;;;;;54.95;25.27;;;;;;;;;;1046549;28;20052;-64
2024/01/17 00:52:39;;;;;;;56.90;25.90;;;;;;;;;;1046495;28;20039;-64
2024/01/17 00:53:09;;;;;;;52.45;24.83;;;;;;;;;;1048509;28;20045;-64
2024/01/17 00:53:40;;;;;;;63.03;26.65;;;;;;;;;;1048196;28;20048;-64
2024/01/17 00:54:10;;;;;;;58.63;27.00;;;;;;;;;;1051295;28;20040;-64
2024/01/17 00:54:41;;;;;;;57.47;25.73;;;;;;;;;;1050242;28;20040;-64
2024/01/17 00:55:12;;;;;;;58.83;25.60;;;;;;;;;;1050804;28;20483;-64
2024/01/17 00:55:42;;;;;;;57.85;25.83;;;;;;;;;;1050435;28;20045;-64
2024/01/17 00:56:13;;;;;;;60.55;27.40;;;;;;;;;;1048514;28;20044;-64
2024/01/17 00:56:43;;;;;;;54.35;25.80;;;;;;;;;;1046262;28;20049;-64
2024/01/17 00:57:14;;;;;;;56.35;26.10;;;;;;;;;;1046851;28;20056;-64
2024/01/17 00:57:44;;;;;;;57.05;25.98;;;;;;;;;;1046221;28;20071;-64
2024/01/17 00:58:15;;;;;;;59.35;26.25;;;;;;;;;;1048675;28;20074;-64
2024/01/17 00:58:45;;;;;;;53.78;24.08;;;;;;;;;;1047803;28;20071;-63
2024/01/17 00:59:16;;;;;;;57.70;25.20;;;;;;;;;;1046684;28;20540;-64
2024/01/17 00:59:46;;;;;;;54.72;25.05;;;;;;;;;;1046290;28;20048;-64
2024/01/17 01:00:17;;;;;;;55.30;26.83;;;;;;;;;;1046627;28;20052;-64
2024/01/17 01:00:47;;;;;;;56.33;26.52;;;;;;;;;;1046346;28;20052;-64
2024/01/17 01:01:19;;;;;;;63.17;26.33;;;;;;;;;;1048108;28;20057;-64
2024/01/17 01:01:49;;;;;;;49.08;25.58;;;;;;;;;;1046247;28;20048;-64
2024/01/17 01:02:39;;;;;;;55.35;25.50;;;;;;;;;;1049670;28;20102;-65
2024/01/17 01:03:09;;;;;;;54.90;24.70;;;;;;;;;;1050818;28;20159;-64
2024/01/17 01:03:40;;;;;;;56.55;25.65;;;;;;;;;;1050532;28;20067;-64
2024/01/17 01:04:10;;;;;;;53.47;25.45;;;;;;;;;;1050945;28;20555;-64
2024/01/17 01:04:41;;;;;;;56.55;25.90;;;;;;;;;;1050024;28;20479;-65
2024/01/17 01:05:11;;;;;;;64.97;25.60;;;;;;;;;;1049815;28;20189;-64
2024/01/17 01:05:42;;;;;;;59.13;27.48;;;;;;;;;;1050214;28;20052;-64
2024/01/17 01:06:13;;;;;;;67.18;27.58;;;;;;;;;;1051244;28;20458;-64
2024/01/17 01:06:45;;;;;;;55.58;26.67;;;;;;;;;;1050218;28;20064;-64
2024/01/17 01:07:15;;;;;;;64.55;27.08;;;;;;;;;;1050636;28;20044;-64
2024/01/17 01:07:47;;;;;;;61.42;27.38;;;;;;;;;;1050590;28;20044;-64
2024/01/17 01:08:18;;;;;;;58.10;27.17;;;;;;;;;;1046936;28;20083;-64
2024/01/17 01:08:48;;;;;;;50.28;26.08;;;;;;;;;;1045961;28;20053;-64
2024/01/17 01:09:18;;;;;;;61.72;28.45;;;;;;;;;;1048894;28;20109;-64
2024/01/17 01:09:49;;;;;;;58.88;26.10;;;;;;;;;;1050237;28;20487;-64
2024/01/17 01:10:20;;;;;;;56.40;26.70;;;;;;;;;;1050313;28;20048;-64
2024/01/17 01:10:51;;;;;;;58.03;27.42;;;;;;;;;;1048011;28;20048;-64
2024/01/17 01:11:21;;;;;;;61.03;28.00;;;;;;;;;;1049823;28;20048;-64
2024/01/17 01:11:52;;;;;;;62.35;27.00;;;;;;;;;;1045869;28;20127;-64
2024/01/17 01:12:22;;;;;;;61.28;28.70;;;;;;;;;;1046554;28;20766;-64
2024/01/17 01:12:53;;;;;;;67.15;27.15;;;;;;;;;;1047389;28;20468;-64
2024/01/17 01:13:23;;;;;;;60.13;27.38;;;;;;;;;;1047943;28;20037;-64
2024/01/17 01:13:54;;;;;;;56.38;26.60;;;;;;;;;;1050266;28;20056;-64
2024/01/17 01:14:24;;;;;;;61.25;28.27;;;;;;;;;;1050925;28;20082;-64
2024/01/17 01:14:55;;;;;;;68.85;28.00;;;;;;;;;;1049462;28;20086;-64
2024/01/17 01:15:26;;;;;;;53.65;25.98;;;;;;;;;;1048243;28;20606;-64
2024/01/17 01:16:19;;;;;;;62.33;27.50;;;;;;;;;;1036337;28;20561;-64
2024/01/17 01:17:01;;;;;;;58.35;26.05;;;;;;;;;;1045874;28;20045;-64
2024/01/17 01:17:32;;;;;;;67.35;28.73;;;;;;;;;;1046116;28;20050;-64
2024/01/17 01:18:03;;;;;;;61.65;26.17;;;;;;;;;;1044338;28;20086;-64
2024/01/17 01:18:48;;;;;;;51.28;26.05;;;;;;;;;;1046706;28;20045;-64
2024/01/17 01:19:19;;;;;;;56.92;25.33;;;;;;;;;;1048604;28;20095;-64
2024/01/17 01:19:49;;;;;;;56.92;27.85;;;;;;;;;;1047406;28;20060;-64
2024/01/17 01:20:20;;;;;;;59.88;26.67;;;;;;;;;;1046337;28;20052;-64
2024/01/17 01:20:51;;;;;;;58.45;25.08;;;;;;;;;;1046506;28;20049;-64
2024/01/17 01:21:21;;;;;;;55.72;26.25;;;;;;;;;;1047000;28;20052;-64
2024/01/17 01:21:52;;;;;;;53.85;24.23;;;;;;;;;;1046937;28;20060;-63
2024/01/17 01:22:22;;;;;;;64.10;26.27;;;;;;;;;;1049057;28;20048;-64
2024/01/17 01:22:53;;;;;;;61.53;27.15;;;;;;;;;;1050446;28;20055;-64
2024/01/17 01:23:26;;;;;;;51.65;25.00;;;;;;;;;;1050309;28;20048;-64
2024/01/17 01:23:57;;;;;;;70.53;28.77;;;;;;;;;;1050376;28;20484;-64
2024/01/17 01:24:27;;;;;;;60.85;26.90;;;;;;;;;;1047800;28;20127;-64
2024/01/17 01:24:58;;;;;;;61.00;27.55;;;;;;;;;;1047242;28;20508;-64
2024/01/17 01:25:28;;;;;;;59.50;26.42;;;;;;;;;;1047403;28;20409;-64
2024/01/17 01:25:59;;;;;;;60.08;25.95;;;;;;;;;;1048607;28;20144;-64
2024/01/17 01:26:29;;;;;;;57.25;26.25;;;;;;;;;;1047216;28;20386;-64
2024/01/17 01:27:00;;;;;;;61.85;26.42;;;;;;;;;;1046726;28;20142;-65
2024/01/17 01:27:31;;;;;;;55.40;25.65;;;;;;;;;;1047009;28;20052;-64
2024/01/17 01:28:02;;;;;;;57.83;25.65;;;;;;;;;;1046494;28;20048;-64
2024/01/17 01:28:33;;;;;;;55.55;25.98;;;;;;;;;;1048902;28;20044;-64
2024/01/17 01:29:03;;;;;;;68.32;27.00;;;;;;;;;;1046439;28;20044;-64
2024/01/17 01:29:34;;;;;;;55.58;27.77;;;;;;;;;;1049719;28;20041;-64
2024/01/17 01:30:05;;;;;;;61.75;25.35;;;;;;;;;;1050747;28;20498;-64
2024/01/17 01:30:35;;;;;;;60.60;26.65;;;;;;;;;;1051218;28;20055;-65
2024/01/17 01:31:06;;;;;;;64.60;26.52;;;;;;;;;;1050625;28;20044;-64
2024/01/17 01:31:37;;;;;;;57.85;27.83;;;;;;;;;;1047025;28;20041;-64
2024/01/17 01:32:07;;;;;;;55.97;27.45;;;;;;;;;;1049775;28;20044;-64
2024/01/17 01:32:38;;;;;;;56.70;26.05;;;;;;;;;;1046972;28;20048;-65
2024/01/17 01:33:08;;;;;;;65.05;26.80;;;;;;;;;;1050744;28;20043;-64
2024/01/17 01:33:39;;;;;;;66.75;27.60;;;;;;;;;;1048737;28;20836;-64
2024/01/17 01:34:09;;;;;;;59.08;26.05;;;;;;;;;;1050669;28;20094;-64
2024/01/17 01:34:40;;;;;;;63.78;26.40;;;;;;;;;;1051230;28;20128;-64
2024/01/17 01:35:11;;;;;;;58.85;26.42;;;;;;;;;;1051475;28;20125;-64
2024/01/17 01:35:41;;;;;;;60.88;28.75;;;;;;;;;;1051470;28;20360;-64
2024/01/17 01:36:12;;;;;;;57.55;28.92;;;;;;;;;;1051266;28;20048;-64
2024/01/17 01:36:42;;;;;;;61.50;26.23;;;;;;;;;;1051124;28;20051;-64
2024/01/17 01:37:13;;;;;;;63.78;28.13;;;;;;;;;;1051534;28;20059;-64
2024/01/17 01:37:43;;;;;;;68.97;29.38;;;;;;;;;;1050968;28;20058;-64
2024/01/17 01:38:14;;;;;;;59.42;27.40;;;;;;;;;;1051554;28;20052;-64
2024/01/17 01:38:45;;;;;;;61.63;26.38;;;;;;;;;;1050935;28;20075;-64
2024/01/17 01:39:15;;;;;;;67.75;26.98;;;;;;;;;;1051685;28;20043;-64
2024/01/17 01:39:46;;;;;;;57.80;26.50;;;;;;;;;;1051244;28;20040;-65
2024/01/17 01:40:16;;;;;;;57.60;25.33;;;;;;;;;;1051125;28;20063;-64
2024/01/17 01:40:47;;;;;;;59.08;25.95;;;;;;;;;;1049532;28;20396;-65
2024/01/17 01:41:18;;;;;;;62.50;28.52;;;;;;;;;;1051451;28;20048;-64
2024/01/17 01:41:48;;;;;;;54.35;25.15;;;;;;;;;;1048200;28;20075;-64
2024/01/17 01:42:19;;;;;;;61.00;26.70;;;;;;;;;;1049051;28;20041;-64
2024/01/17 01:42:49;;;;;;;60.90;27.23;;;;;;;;;;1050291;28;20759;-64
2024/01/17 01:43:21;;;;;;;61.10;25.90;;;;;;;;;;1048403;28;20476;-64
2024/01/17 01:43:52;;;;;;;60.65;26.10;;;;;;;;;;1047012;28;20123;-64
2024/01/17 01:44:22;;;;;;;61.13;25.00;;;;;;;;;;1051546;28;20052;-64
2024/01/17 01:44:53;;;;;;;58.63;25.38;;;;;;;;;;1050492;28;20138;-64
2024/01/17 01:45:24;;;;;;;67.25;27.13;;;;;;;;;;1051623;28;20505;-64
2024/01/17 01:46:11;;;;;;;60.80;27.23;;;;;;;;;;1051185;28;20052;-64
2024/01/17 01:46:44;;;;;;;59.00;25.02;;;;;;;;;;1050153;28;20055;-64
2024/01/17 01:47:16;;;;;;;56.67;25.23;;;;;;;;;;1047610;28;20087;-64
2024/01/17 01:47:47;;;;;;;64.22;25.23;;;;;;;;;;1047876;28;20063;-64
2024/01/17 01:48:17;;;;;;;61.05;26.70;;;;;;;;;;1047498;28;20052;-64
2024/01/17 01:48:49;;;;;;;54.05;26.02;;;;;;;;;;1051014;28;20055;-64
2024/01/17 01:49:19;;;;;;;64.70;26.63;;;;;;;;;;1050196;28;20051;-64
2024/01/17 01:49:50;;;;;;;60.60;26.27;;;;;;;;;;1050937;28;20044;-64
2024/01/17 01:50:21;;;;;;;64.35;27.10;;;;;;;;;;1051617;28;20048;-65
2024/01/17 01:50:52;;;;;;;57.03;26.92;;;;;;;;;;1050882;28;20059;-64
2024/01/17 01:51:23;;;;;;;63.63;27.10;;;;;;;;;;1051541;28;20036;-64
2024/01/17 01:51:54;;;;;;;65.43;27.65;;;;;;;;;;1048285;28;20044;-64
2024/01/17 01:52:26;;;;;;;60.17;27.05;;;;;;;;;;1047941;28;20044;-64
2024/01/17 01:52:56;;;;;;;61.00;26.25;;;;;;;;;;1050630;28;20119;-64
2024/01/17 01:53:30;;;;;;;60.85;25.60;;;;;;;;;;1051636;28;20169;-64
2024/01/17 01:54:02;;;;;;;57.10;27.10;;;;;;;;;;1050260;28;20403;-65
2024/01/17 01:54:34;;;;;;;61.90;26.20;;;;;;;;;;1048597;28;20059;-64
2024/01/17 01:55:06;;;;;;;59.10;25.65;;;;;;;;;;1046472;28;20177;-65
2024/01/17 01:55:37;;;;;;;58.35;26.75;;;;;;;;;;1047948;28;20504;-64
2024/01/17 01:56:09;;;;;;;60.70;26.45;;;;;;;;;;1051144;28;20043;-65
2024/01/17 01:56:41;;;;;;;60.70;26.80;;;;;;;;;;1051017;28;20411;-62
2024/01/17 01:57:11;;;;;;;60.13;24.55;;;;;;;;;;1047391;28;20048;-64
2024/01/17 01:57:50;;;;;;;53.78;25.67;;;;;;;;;;1046700;28;20052;-64
2024/01/17 01:58:22;;;;;;;50.97;26.27;;;;;;;;;;1047218;28;20586;-65
2024/01/17 01:58:54;;;;;;;62.72;26.13;;;;;;;;;;1046743;28;20123;-64
2024/01/17 01:59:25;;;;;;;55.95;25.70;;;;;;;;;;1050940;28;20040;-64
2024/01/17 01:59:56;;;;;;;61.88;24.95;;;;;;;;;;1046572;28;20048;-64
2024/01/17 02:00:27;;;;;;;55.42;26.00;;;;;;;;;;1047518;28;20052;-64
2024/01/17 02:00:58;;;;;;;58.97;26.52;;;;;;;;;;1046685;28;20045;-64
2024/01/17 02:01:29;;;;;;;57.90;25.92;;;;;;;;;;1047381;28;20413;-64
2024/01/17 02:02:01;;;;;;;46.55;22.95;;;;;;;;;;1046723;28;20103;-64
2024/01/17 02:02:32;;;;;;;64.78;25.85;;;;;;;;;;1047600;28;20053;-65
2024/01/17 02:03:03;;;;;;;56.05;25.65;;;;;;;;;;1046540;28;20147;-64
2024/01/17 02:03:34;;;;;;;54.00;25.17;;;;;;;;;;1047652;28;20044;-64
2024/01/17 02:04:05;;;;;;;55.45;25.63;;;;;;;;;;1048268;28;20393;-64
2024/01/17 02:04:36;;;;;;;54.38;26.27;;;;;;;;;;1047462;28;20058;-65
2024/01/17 02:05:07;;;;;;;56.55;25.23;;;;;;;;;;1051304;28;20052;-64
2024/01/17 02:05:37;;;;;;;59.65;26.02;;;;;;;;;;1049610;28;20056;-65
2024/01/17 02:06:08;;;;;;;53.67;25.67;;;;;;;;;;1048704;28;20136;-63
2024/01/17 02:06:39;;;;;;;59.25;24.48;;;;;;;;;;1048467;28;20047;-64
2024/01/17 02:07:12;;;;;;;59.20;25.70;;;;;;;;;;1048468;28;20049;-64
2024/01/17 02:07:43;;;;;;;57.45;25.40;;;;;;;;;;1046479;28;20396;-64
2024/01/17 02:08:15;;;;;;;58.22;26.63;;;;;;;;;;1047542;28;20348;-64
2024/01/17 02:08:46;;;;;;;53.15;24.58;;;;;;;;;;1047050;28;20144;-64
2024/01/17 02:09:17;;;;;;;56.50;24.73;;;;;;;;;;1049224;28;20047;-64
2024/01/17 02:09:48;;;;;;;51.33;25.92;;;;;;;;;;1047412;28;20048;-65
2024/01/17 02:10:19;;;;;;;57.22;25.45;;;;;;;;;;1047896;28;20048;-64
2024/01/17 02:10:50;;;;;;;52.65;24.83;;;;;;;;;;1047204;28;20053;-64
2024/01/17 02:11:21;;;;;;;51.20;24.70;;;;;;;;;;1046944;28;20048;-64
2024/01/17 02:11:52;;;;;;;57.80;25.08;;;;;;;;;;1047129;28;20053;-64
2024/01/17 02:12:23;;;;;;;56.50;24.85;;;;;;;;;;1048143;28;20052;-64
2024/01/17 02:12:54;;;;;;;47.47;23.33;;;;;;;;;;1050937;28;20101;-64
2024/01/17 02:13:25;;;;;;;52.75;25.25;;;;;;;;;;1050849;28;20059;-64
2024/01/17 02:13:56;;;;;;;53.80;24.50;;;;;;;;;;1051445;28;20052;-64
2024/01/17 02:14:26;;;;;;;60.47;25.65;;;;;;;;;;1051972;28;20404;-64
2024/01/17 02:14:57;;;;;;;58.20;24.35;;;;;;;;;;1047664;28;20389;-64
2024/01/17 02:15:28;;;;;;;51.83;23.27;;;;;;;;;;1051643;28;20115;-64
2024/01/17 02:16:00;;;;;;;50.58;24.33;;;;;;;;;;1048108;28;20066;-64
2024/01/17 02:16:33;;;;;;;55.35;25.52;;;;;;;;;;1047755;28;20044;-64
2024/01/17 02:17:03;;;;;;;48.92;23.33;;;;;;;;;;1048284;28;20130;-65
2024/01/17 02:17:34;;;;;;;54.95;23.73;;;;;;;;;;1049308;28;20404;-64
2024/01/17 02:18:05;;;;;;;50.75;24.05;;;;;;;;;;1047982;28;20048;-64
2024/01/17 02:18:35;;;;;;;54.95;23.88;;;;;;;;;;1046665;28;20163;-64
2024/01/17 02:19:07;;;;;;;59.17;27.13;;;;;;;;;;1045275;28;20044;-64
2024/01/17 02:19:40;;;;;;;57.67;25.58;;;;;;;;;;1047026;28;20058;-64
2024/01/17 02:20:11;;;;;;;58.60;25.00;;;;;;;;;;1050477;28;20051;-64
2024/01/17 02:20:42;;;;;;;51.63;25.75;;;;;;;;;;1046693;28;20048;-65
2024/01/17 02:21:13;;;;;;;52.05;24.67;;;;;;;;;;1051896;28;20051;-64
2024/01/17 02:21:43;;;;;;;54.50;23.80;;;;;;;;;;1048846;28;20123;-64
2024/01/17 02:22:14;;;;;;;54.90;23.70;;;;;;;;;;1048498;28;20052;-64
2024/01/17 02:22:44;;;;;;;56.63;24.33;;;;;;;;;;1046619;28;20045;-64
2024/01/17 02:23:25;;;;;;;47.28;22.80;;;;;;;;;;1050203;28;20059;-64
2024/01/17 02:24:13;;;;;;;47.10;21.27;;;;;;;;;;1046259;28;20060;-64
2024/01/17 02:24:43;;;;;;;44.92;22.15;;;;;;;;;;1049803;28;20060;-64
2024/01/17 02:25:14;;;;;;;50.75;24.05;;;;;;;;;;1048155;28;20064;-64
2024/01/17 02:25:44;;;;;;;54.70;24.05;;;;;;;;;;1051354;28;20044;-64
2024/01/17 02:26:15;;;;;;;49.83;23.52;;;;;;;;;;1047136;28;20048;-64
2024/01/17 02:26:45;;;;;;;54.22;24.70;;;;;;;;;;1050430;28;20055;-64
2024/01/17 02:27:16;;;;;;;49.90;22.33;;;;;;;;;;1051176;28;20044;-64
2024/01/17 02:27:46;;;;;;;54.00;24.35;;;;;;;;;;1047461;28;20140;-64
2024/01/17 02:28:17;;;;;;;54.08;23.13;;;;;;;;;;1046704;28;20044;-64
2024/01/17 02:28:47;;;;;;;53.83;23.95;;;;;;;;;;1047269;28;20127;-64
2024/01/17 02:29:18;;;;;;;50.13;22.85;;;;;;;;;;1047540;28;20071;-65
2024/01/17 02:29:48;;;;;;;54.00;24.55;;;;;;;;;;1046489;28;20182;-64
2024/01/17 02:30:19;;;;;;;49.88;23.25;;;;;;;;;;1051371;28;20036;-64
2024/01/17 02:30:50;;;;;;;54.85;23.77;;;;;;;;;;1050386;28;20044;-64
2024/01/17 02:31:21;;;;;;;52.13;23.85;;;;;;;;;;1047660;28;20049;-65
2024/01/17 02:31:52;;;;;;;62.70;23.95;;;;;;;;;;1046298;28;20067;-64
2024/01/17 02:32:23;;;;;;;52.90;23.83;;;;;;;;;;1047340;28;20059;-65
2024/01/17 02:32:53;;;;;;;52.63;23.13;;;;;;;;;;1050099;28;20131;-64
2024/01/17 02:33:24;;;;;;;48.25;23.23;;;;;;;;;;1047104;28;20045;-64
2024/01/17 02:33:54;;;;;;;49.55;22.95;;;;;;;;;;1047059;28;20443;-63
2024/01/17 02:34:25;;;;;;;61.60;24.60;;;;;;;;;;1046855;28;20053;-64
2024/01/17 02:34:55;;;;;;;47.95;22.17;;;;;;;;;;1047060;28;20052;-64
2024/01/17 02:35:26;;;;;;;47.35;22.65;;;;;;;;;;1046912;28;20040;-66
2024/01/17 02:35:57;;;;;;;51.28;22.80;;;;;;;;;;1051309;28;20048;-64
2024/01/17 02:36:27;;;;;;;54.00;24.20;;;;;;;;;;1048723;28;20540;-64
2024/01/17 02:36:58;;;;;;;50.65;23.15;;;;;;;;;;1048208;28;20056;-64
2024/01/17 02:37:29;;;;;;;51.67;22.73;;;;;;;;;;1049864;28;20097;-64
2024/01/17 02:37:59;;;;;;;49.92;22.80;;;;;;;;;;1048695;28;20098;-64
2024/01/17 02:38:30;;;;;;;54.88;23.42;;;;;;;;;;1047406;28;20056;-64
2024/01/17 02:39:01;;;;;;;54.58;23.25;;;;;;;;;;1046096;28;20055;-64
2024/01/17 02:39:31;;;;;;;50.30;22.23;;;;;;;;;;1047010;28;20048;-64
2024/01/17 02:40:01;;;;;;;45.47;23.15;;;;;;;;;;1047741;28;20055;-64
2024/01/17 02:40:32;;;;;;;52.63;23.83;;;;;;;;;;1048581;28;20048;-64
2024/01/17 02:41:03;;;;;;;46.42;23.02;;;;;;;;;;1046784;28;20497;-65
2024/01/17 02:41:33;;;;;;;54.45;23.13;;;;;;;;;;1047165;28;20610;-65
2024/01/17 02:42:04;;;;;;;46.58;22.02;;;;;;;;;;1046686;28;20067;-64
2024/01/17 02:42:35;;;;;;;51.42;23.90;;;;;;;;;;1047079;28;20421;-64
2024/01/17 02:43:05;;;;;;;46.22;22.40;;;;;;;;;;1047946;28;20477;-64
2024/01/17 02:43:36;;;;;;;55.63;24.40;;;;;;;;;;1046984;28;20052;-64
2024/01/17 02:44:06;;;;;;;51.92;21.75;;;;;;;;;;1051715;28;20498;-64
2024/01/17 02:44:37;;;;;;;48.78;21.95;;;;;;;;;;1050575;28;20044;-65
2024/01/17 02:45:08;;;;;;;46.30;22.92;;;;;;;;;;1049539;28;20048;-64
2024/01/17 02:45:38;;;;;;;49.60;23.30;;;;;;;;;;1046870;28;20507;-64
2024/01/17 02:46:09;;;;;;;55.03;22.90;;;;;;;;;;1050898;28;20075;-65
2024/01/17 02:46:39;;;;;;;58.58;24.23;;;;;;;;;;1050825;28;20052;-64
2024/01/17 02:47:09;;;;;;;52.60;23.38;;;;;;;;;;1050402;28;20131;-65
2024/01/17 02:47:40;;;;;;;56.38;23.15;;;;;;;;;;1050788;28;20078;-64
2024/01/17 02:48:11;;;;;;;51.90;23.92;;;;;;;;;;1049420;28;20476;-65
2024/01/17 02:48:42;;;;;;;49.00;22.55;;;;;;;;;;1050825;28;20048;-64
2024/01/17 02:49:19;;;;;;;51.25;23.15;;;;;;;;;;1050985;28;20051;-64
2024/01/17 02:49:49;;;;;;;47.75;22.83;;;;;;;;;;1050996;28;20048;-65
2024/01/17 02:50:20;;;;;;;49.00;22.40;;;;;;;;;;1050892;28;20051;-65
2024/01/17 02:50:50;;;;;;;46.55;22.17;;;;;;;;;;1048997;28;20071;-64
2024/01/17 02:51:21;;;;;;;44.15;22.10;;;;;;;;;;1047525;28;20052;-64
2024/01/17 02:51:51;;;;;;;46.55;21.38;;;;;;;;;;1050795;28;20068;-64
2024/01/17 02:52:22;;;;;;;49.55;22.83;;;;;;;;;;1051690;28;20036;-64
2024/01/17 02:52:52;;;;;;;52.20;22.90;;;;;;;;;;1050221;28;20097;-64
2024/01/17 02:53:23;;;;;;;48.83;21.98;;;;;;;;;;1050352;28;20048;-64
2024/01/17 02:53:53;;;;;;;52.38;24.38;;;;;;;;;;1048338;28;20036;-65
2024/01/17 02:54:24;;;;;;;53.70;22.45;;;;;;;;;;1047667;28;20098;-64
2024/01/17 02:54:54;;;;;;;49.00;22.15;;;;;;;;;;1046427;28;20400;-65
2024/01/17 02:55:25;;;;;;;51.00;21.83;;;;;;;;;;1047352;28;20040;-64
2024/01/17 02:55:56;;;;;;;50.03;23.55;;;;;;;;;;1048786;28;20083;-65
2024/01/17 02:56:26;;;;;;;43.78;21.88;;;;;;;;;;1049442;28;20432;-65
2024/01/17 02:56:57;;;;;;;47.60;23.25;;;;;;;;;;1050390;28;20764;-64
2024/01/17 02:57:27;;;;;;;51.58;22.75;;;;;;;;;;1048048;28;20063;-65
2024/01/17 02:58:00;;;;;;;52.38;23.08;;;;;;;;;;1048420;28;20149;-64
2024/01/17 02:58:31;;;;;;;53.83;25.20;;;;;;;;;;1050666;28;20052;-64
2024/01/17 02:59:01;;;;;;;47.67;21.20;;;;;;;;;;1051003;28;20048;-65
2024/01/17 02:59:33;;;;;;;44.13;23.05;;;;;;;;;;1051052;28;20047;-64
2024/01/17 03:00:05;;;;;;;58.90;23.25;;;;;;;;;;1047012;28;20071;-64
2024/01/17 03:00:40;;;;;;;50.22;21.67;;;;;;;;;;1047222;28;20049;-64
2024/01/17 03:01:14;;;;;;;52.17;22.95;;;;;;;;;;1051200;28;20044;-64
2024/01/17 03:01:46;;;;;;;50.75;22.63;;;;;;;;;;1046698;28;20067;-65
2024/01/17 03:02:16;;;;;;;54.75;21.98;;;;;;;;;;1047310;28;20041;-64